Adrian, Missouri
Current Conditions -  °F | °C
As of 5:35 AM on Monday 22 Dec 2014 (Local Time) from KGLY Reporting Station
Overcast Overcast  
Wind Chill:   Ceiling: 2000
Heat Index:   Visibility: 8mi
Dew Point:   Wind: 7mph
Humidity: 87%   Direction: 140°SE
Pressure: 29.66"   Gusts: NA
Location:  38.4°N, 94.35°W
Report Text: KGLY 221135Z AUTO 14006KT 8SM OVC020 06/04 A2966 RMK AO2
Loading
Personal Weather Stations






























Interactive Weather Map New forecast layout! Learn more

10-Day Weather Forecast

Advertisements
Track Severe Weather on mobile